sensor_id;sensor_type;location;lat;lon;timestamp;temperature;humidity
19654;DHT22;9975;48.046;7.804;2024-01-27T17:06:51;7.60;76.70
19654;DHT22;9975;48.046;7.804;2024-01-27T17:09:16;7.50;77.20
19654;DHT22;9975;48.046;7.804;2024-01-27T17:11:42;7.40;79.20
19654;DHT22;9975;48.046;7.804;2024-01-27T17:14:08;7.40;79.60
19654;DHT22;9975;48.046;7.804;2024-01-27T17:16:35;7.30;79.90
19654;DHT22;9975;48.046;7.804;2024-01-27T17:19:01;7.30;80.70
19654;DHT22;9975;48.046;7.804;2024-01-27T17:21:27;7.20;81.00
19654;DHT22;9975;48.046;7.804;2024-01-27T17:23:53;7.20;83.30
19654;DHT22;9975;48.046;7.804;2024-01-27T17:26:18;7.20;84.20
19654;DHT22;9975;48.046;7.804;2024-01-27T17:28:44;7.10;83.30
19654;DHT22;9975;48.046;7.804;2024-01-27T17:31:10;7.10;83.90
19654;DHT22;9975;48.046;7.804;2024-01-27T17:33:37;6.90;84.80
19654;DHT22;9975;48.046;7.804;2024-01-27T17:36:05;6.80;86.00
19654;DHT22;9975;48.046;7.804;2024-01-27T17:38:30;6.60;86.40
19654;DHT22;9975;48.046;7.804;2024-01-27T17:40:56;6.60;87.90
19654;DHT22;9975;48.046;7.804;2024-01-27T17:43:22;6.50;87.70
19654;DHT22;9975;48.046;7.804;2024-01-27T17:45:48;6.40;89.30
19654;DHT22;9975;48.046;7.804;2024-01-27T17:48:14;6.50;90.30
19654;DHT22;9975;48.046;7.804;2024-01-27T17:53:05;6.30;90.30
19654;DHT22;9975;48.046;7.804;2024-01-27T17:55:32;6.10;91.60
19654;DHT22;9975;48.046;7.804;2024-01-27T17:57:58;6.20;92.00
19654;DHT22;9975;48.046;7.804;2024-01-27T18:00:23;5.90;95.80
19654;DHT22;9975;48.046;7.804;2024-01-27T18:03:03;5.60;98.00
19654;DHT22;9975;48.046;7.804;2024-01-27T18:05:29;5.70;99.30
19654;DHT22;9975;48.046;7.804;2024-01-27T18:07:54;5.60;98.20
19654;DHT22;9975;48.046;7.804;2024-01-27T18:10:20;5.70;97.80
19654;DHT22;9975;48.046;7.804;2024-01-27T18:12:46;5.60;99.40
19654;DHT22;9975;48.046;7.804;2024-01-27T18:15:12;5.40;99.90
19654;DHT22;9975;48.046;7.804;2024-01-27T18:17:38;5.40;99.90
19654;DHT22;9975;48.046;7.804;2024-01-27T18:20:04;5.50;99.90
19654;DHT22;9975;48.046;7.804;2024-01-27T18:22:30;5.40;99.90
19654;DHT22;9975;48.046;7.804;2024-01-27T18:27:22;5.50;99.90
19654;DHT22;9975;48.046;7.804;2024-01-27T18:29:48;5.40;99.90
19654;DHT22;9975;48.046;7.804;2024-01-27T18:32:14;5.30;99.90
19654;DHT22;9975;48.046;7.804;2024-01-27T18:34:40;5.20;99.90
19654;DHT22;9975;48.046;7.804;2024-01-27T18:37:07;5.20;99.90
19654;DHT22;9975;48.046;7.804;2024-01-27T18:41:59;4.90;99.90
19654;DHT22;9975;48.046;7.804;2024-01-27T18:44:25;5.00;99.90
19654;DHT22;9975;48.046;7.804;2024-01-27T18:46:51;5.00;99.90
19654;DHT22;9975;48.046;7.804;2024-01-27T18:54:09;4.80;99.90
19654;DHT22;9975;48.046;7.804;2024-01-27T19:01:34;4.60;99.90
19654;DHT22;9975;48.046;7.804;2024-01-27T19:04:02;4.50;99.90
19654;DHT22;9975;48.046;7.804;2024-01-27T19:06:37;4.40;99.90
19654;DHT22;9975;48.046;7.804;2024-01-27T19:09:03;4.40;99.90
19654;DHT22;9975;48.046;7.804;2024-01-27T19:13:55;4.30;99.90
19654;DHT22;9975;48.046;7.804;2024-01-27T19:16:20;4.10;99.90
19654;DHT22;9975;48.046;7.804;2024-01-27T19:18:46;4.00;99.90
19654;DHT22;9975;48.046;7.804;2024-01-27T19:21:11;3.90;99.90
19654;DHT22;9975;48.046;7.804;2024-01-27T19:26:03;4.10;99.90
19654;DHT22;9975;48.046;7.804;2024-01-27T19:28:29;4.10;99.90
19654;DHT22;9975;48.046;7.804;2024-01-27T19:30:55;4.10;99.90
19654;DHT22;9975;48.046;7.804;2024-01-27T19:33:22;4.00;99.90
19654;DHT22;9975;48.046;7.804;2024-01-27T19:38:13;3.80;99.90
19654;DHT22;9975;48.046;7.804;2024-01-27T19:40:39;3.90;99.90
19654;DHT22;9975;48.046;7.804;2024-01-27T19:45:31;3.80;99.90
19654;DHT22;9975;48.046;7.804;2024-01-27T19:47:57;3.80;99.90
19654;DHT22;9975;48.046;7.804;2024-01-27T19:52:50;3.60;99.90
19654;DHT22;9975;48.046;7.804;2024-01-27T19:55:15;3.40;99.90
19654;DHT22;9975;48.046;7.804;2024-01-27T19:57:43;3.40;99.90
19654;DHT22;9975;48.046;7.804;2024-01-27T20:00:09;4.80;99.90
19654;DHT22;9975;48.046;7.804;2024-01-27T20:02:35;3.20;99.90
19654;DHT22;9975;48.046;7.804;2024-01-27T20:05:00;3.40;99.90
19654;DHT22;9975;48.046;7.804;2024-01-27T20:09:56;3.20;99.90
19654;DHT22;9975;48.046;7.804;2024-01-27T20:12:24;3.10;99.90
19654;DHT22;9975;48.046;7.804;2024-01-27T20:14:50;3.10;99.90
19654;DHT22;9975;48.046;7.804;2024-01-27T20:17:15;3.10;99.90
19654;DHT22;9975;48.046;7.804;2024-01-27T20:19:44;3.00;99.90
19654;DHT22;9975;48.046;7.804;2024-01-27T20:22:13;2.90;99.90
19654;DHT22;9975;48.046;7.804;2024-01-27T20:24:40;2.80;99.90
19654;DHT22;9975;48.046;7.804;2024-01-27T20:27:05;2.70;99.90
19654;DHT22;9975;48.046;7.804;2024-01-27T20:29:31;2.60;99.90
19654;DHT22;9975;48.046;7.804;2024-01-27T20:31:57;2.50;99.90
19654;DHT22;9975;48.046;7.804;2024-01-27T20:34:24;2.60;99.90
19654;DHT22;9975;48.046;7.804;2024-01-27T20:39:16;2.40;99.90
19654;DHT22;9975;48.046;7.804;2024-01-27T20:41:41;2.40;99.90
19654;DHT22;9975;48.046;7.804;2024-01-27T20:44:07;2.40;99.90
19654;DHT22;9975;48.046;7.804;2024-01-27T20:46:32;2.40;99.90
19654;DHT22;9975;48.046;7.804;2024-01-27T20:48:58;2.40;99.90
19654;DHT22;9975;48.046;7.804;2024-01-27T20:51:25;2.40;99.90
19654;DHT22;9975;48.046;7.804;2024-01-27T20:56:17;2.40;99.90
19654;DHT22;9975;48.046;7.804;2024-01-27T20:58:42;2.40;99.90
19654;DHT22;9975;48.046;7.804;2024-01-27T21:03:35;2.20;99.90
19654;DHT22;9975;48.046;7.804;2024-01-27T21:06:01;2.10;99.90
19654;DHT22;9975;48.046;7.804;2024-01-27T21:08:27;2.10;99.90
19654;DHT22;9975;48.046;7.804;2024-01-27T21:10:54;2.10;99.90
19654;DHT22;9975;48.046;7.804;2024-01-27T21:13:20;1.90;99.90
19654;DHT22;9975;48.046;7.804;2024-01-27T21:18:12;1.90;99.90
19654;DHT22;9975;48.046;7.804;2024-01-27T21:20:38;2.00;99.90
19654;DHT22;9975;48.046;7.804;2024-01-27T21:23:04;1.80;99.90
19654;DHT22;9975;48.046;7.804;2024-01-27T21:25:32;1.80;99.90
19654;DHT22;9975;48.046;7.804;2024-01-27T21:30:26;1.60;99.90
19654;DHT22;9975;48.046;7.804;2024-01-27T21:32:52;1.60;99.90
19654;DHT22;9975;48.046;7.804;2024-01-27T21:35:18;1.40;99.90
19654;DHT22;9975;48.046;7.804;2024-01-27T21:37:43;1.40;99.90
19654;DHT22;9975;48.046;7.804;2024-01-27T21:40:10;1.20;99.90
19654;DHT22;9975;48.046;7.804;2024-01-27T21:42:36;1.10;99.90
19654;DHT22;9975;48.046;7.804;2024-01-27T21:45:02;1.10;99.90
19654;DHT22;9975;48.046;7.804;2024-01-27T21:47:29;1.10;99.90
19654;DHT22;9975;48.046;7.804;2024-01-27T21:52:21;0.90;99.90
19654;DHT22;9975;48.046;7.804;2024-01-27T21:54:47;1.00;99.90
19654;DHT22;9975;48.046;7.804;2024-01-27T21:59:40;0.90;99.90
19654;DHT22;9975;48.046;7.804;2024-01-27T22:02:06;0.80;99.90
19654;DHT22;9975;48.046;7.804;2024-01-27T22:06:57;0.70;99.90
19654;DHT22;9975;48.046;7.804;2024-01-27T22:09:23;0.80;99.90
19654;DHT22;9975;48.046;7.804;2024-01-27T22:11:49;0.80;99.90
19654;DHT22;9975;48.046;7.804;2024-01-27T22:14:16;0.60;99.90
19654;DHT22;9975;48.046;7.804;2024-01-27T22:19:07;0.70;99.90
19654;DHT22;9975;48.046;7.804;2024-01-27T22:21:34;0.60;99.90
19654;DHT22;9975;48.046;7.804;2024-01-27T22:24:00;0.60;99.90
19654;DHT22;9975;48.046;7.804;2024-01-27T22:26:25;0.60;99.90
19654;DHT22;9975;48.046;7.804;2024-01-27T22:28:51;0.60;99.90
19654;DHT22;9975;48.046;7.804;2024-01-27T22:31:17;0.60;99.90
19654;DHT22;9975;48.046;7.804;2024-01-27T22:33:43;0.60;99.90
19654;DHT22;9975;48.046;7.804;2024-01-27T22:36:09;0.50;99.90
19654;DHT22;9975;48.046;7.804;2024-01-27T22:38:38;0.60;99.90
19654;DHT22;9975;48.046;7.804;2024-01-27T22:41:05;0.70;99.90
19654;DHT22;9975;48.046;7.804;2024-01-27T22:43:31;0.60;99.90
19654;DHT22;9975;48.046;7.804;2024-01-27T22:45:58;0.70;99.90
19654;DHT22;9975;48.046;7.804;2024-01-27T22:48:24;0.70;99.90
19654;DHT22;9975;48.046;7.804;2024-01-27T22:50:51;0.60;99.90
19654;DHT22;9975;48.046;7.804;2024-01-27T22:53:19;0.50;99.90
19654;DHT22;9975;48.046;7.804;2024-01-27T22:55:45;0.50;99.90
19654;DHT22;9975;48.046;7.804;2024-01-27T22:58:12;0.30;99.90
19654;DHT22;9975;48.046;7.804;2024-01-27T23:00:38;0.50;99.90
19654;DHT22;9975;48.046;7.804;2024-01-27T23:03:06;0.40;99.90
19654;DHT22;9975;48.046;7.804;2024-01-27T23:05:33;0.40;99.90
19654;DHT22;9975;48.046;7.804;2024-01-27T23:07:59;0.30;99.90
19654;DHT22;9975;48.046;7.804;2024-01-27T23:10:25;0.30;99.90
19654;DHT22;9975;48.046;7.804;2024-01-27T23:12:57;0.30;99.90
19654;DHT22;9975;48.046;7.804;2024-01-27T23:17:49;0.20;99.90
19654;DHT22;9975;48.046;7.804;2024-01-27T23:20:15;0.20;99.90
19654;DHT22;9975;48.046;7.804;2024-01-27T23:22:41;0.10;99.90
19654;DHT22;9975;48.046;7.804;2024-01-27T23:25:07;0.10;99.90
19654;DHT22;9975;48.046;7.804;2024-01-27T23:30:01;0.00;99.90
